Time;durP1;ratioP1;P1;durP2;ratioP2;P2;SDS_P1;SDS_P2;PMS_P1;PMS_P2;Temp;Humidity;BMP_temperature;BMP_pressure;BME280_temperature;BME280_humidity;BME280_pressure;Samples;Min_cycle;Max_cycle;Signal;HPM_P1;HPM_P2
2021/12/08 00:00:15;;;;;;;10.37;6.30;;;;;;;;;;5032517;28;20092;-75
2021/12/08 00:02:40;;;;;;;12.77;6.33;;;;;;;;;;5025357;28;20069;-76
2021/12/08 00:05:06;;;;;;;10.87;6.00;;;;;;;;;;5026680;28;20570;-76
2021/12/08 00:07:33;;;;;;;11.63;6.60;;;;;;;;;;5031348;28;20504;-75
2021/12/08 00:13:07;;;;;;;11.33;6.13;;;;;;;;;;5009688;28;20033;-77
2021/12/08 00:15:32;;;;;;;9.63;5.90;;;;;;;;;;5009123;28;20038;-76
2021/12/08 00:17:58;;;;;;;11.58;6.04;;;;;;;;;;5009131;28;20060;-76
2021/12/08 00:20:23;;;;;;;11.83;6.17;;;;;;;;;;5003981;28;20084;-77
2021/12/08 00:22:48;;;;;;;10.93;6.00;;;;;;;;;;5004642;28;20042;-76
2021/12/08 00:25:14;;;;;;;10.33;5.60;;;;;;;;;;5007920;28;20022;-76
2021/12/08 00:27:39;;;;;;;9.30;5.87;;;;;;;;;;5007126;28;20046;-77
2021/12/08 00:30:05;;;;;;;10.47;5.60;;;;;;;;;;5008951;28;20026;-75
2021/12/08 00:32:32;;;;;;;9.63;5.80;;;;;;;;;;5006862;28;20529;-76
2021/12/08 00:34:57;;;;;;;11.17;6.23;;;;;;;;;;5001350;28;20433;-75
2021/12/08 00:37:23;;;;;;;9.90;5.40;;;;;;;;;;4992306;28;20095;-77
2021/12/08 00:39:49;;;;;;;10.27;5.77;;;;;;;;;;5003233;28;20065;-79
2021/12/08 00:42:14;;;;;;;8.20;5.03;;;;;;;;;;5004927;28;20095;-76
2021/12/08 00:44:40;;;;;;;7.87;5.30;;;;;;;;;;5007689;28;20050;-77
2021/12/08 00:47:05;;;;;;;9.30;5.23;;;;;;;;;;5018089;28;20460;-77
2021/12/08 00:49:31;;;;;;;8.20;5.20;;;;;;;;;;5030607;28;20040;-77
2021/12/08 00:51:56;;;;;;;9.30;5.33;;;;;;;;;;5021134;28;20037;-76
2021/12/08 00:54:21;;;;;;;9.07;5.37;;;;;;;;;;5026903;28;20037;-77
2021/12/08 00:56:46;;;;;;;8.10;5.10;;;;;;;;;;5028045;28;20492;-76
2021/12/08 00:59:11;;;;;;;7.97;5.03;;;;;;;;;;5024507;28;20022;-76
2021/12/08 01:01:38;;;;;;;8.67;5.03;;;;;;;;;;5022904;28;20108;-77
2021/12/08 01:04:03;;;;;;;10.30;5.27;;;;;;;;;;5024253;28;20040;-78
2021/12/08 01:06:28;;;;;;;8.10;5.00;;;;;;;;;;5023753;28;20026;-75
2021/12/08 01:08:53;;;;;;;8.50;5.33;;;;;;;;;;5026613;28;20037;-77
2021/12/08 01:11:20;;;;;;;8.03;5.27;;;;;;;;;;5019995;28;20030;-76
2021/12/08 01:13:45;;;;;;;7.43;4.77;;;;;;;;;;5030477;28;20108;-76
2021/12/08 01:16:11;;;;;;;8.17;4.90;;;;;;;;;;5024954;28;20492;-76
2021/12/08 01:18:37;;;;;;;6.83;4.40;;;;;;;;;;5019894;28;20049;-78
2021/12/08 01:21:04;;;;;;;7.57;5.00;;;;;;;;;;5028942;28;20151;-77
2021/12/08 01:23:29;;;;;;;6.97;4.53;;;;;;;;;;5024824;28;20030;-78
2021/12/08 01:25:55;;;;;;;10.63;5.40;;;;;;;;;;5025590;28;20022;-76
2021/12/08 01:28:22;;;;;;;9.07;5.13;;;;;;;;;;5024023;28;20024;-76
2021/12/08 01:30:49;;;;;;;9.57;5.00;;;;;;;;;;5028543;28;20060;-76
2021/12/08 01:33:14;;;;;;;8.73;4.60;;;;;;;;;;5025725;28;20021;-76
2021/12/08 01:35:39;;;;;;;7.83;4.40;;;;;;;;;;5028478;28;20029;-78
2021/12/08 01:38:04;;;;;;;6.83;4.87;;;;;;;;;;5023115;28;20521;-76
2021/12/08 01:40:30;;;;;;;8.83;5.00;;;;;;;;;;5021752;28;20040;-76
2021/12/08 01:42:58;;;;;;;7.03;4.63;;;;;;;;;;5022977;28;20578;-77
2021/12/08 01:48:10;;;;;;;8.27;4.90;;;;;;;;;;5029988;28;20060;-77
2021/12/08 01:50:35;;;;;;;8.27;4.57;;;;;;;;;;5026552;28;20041;-76
2021/12/08 01:53:02;;;;;;;9.13;4.80;;;;;;;;;;5023696;28;20484;-76
2021/12/08 01:55:27;;;;;;;7.47;4.67;;;;;;;;;;5029000;28;20025;-78
2021/12/08 01:57:52;;;;;;;7.13;4.83;;;;;;;;;;5030353;28;20465;-78
2021/12/08 02:00:20;;;;;;;6.93;4.20;;;;;;;;;;5029035;28;20582;-77
2021/12/08 02:02:45;;;;;;;6.57;4.20;;;;;;;;;;5021514;28;20108;-78
2021/12/08 02:05:11;;;;;;;8.17;4.37;;;;;;;;;;5028189;28;20144;-78
2021/12/08 02:07:37;;;;;;;8.20;4.03;;;;;;;;;;5029334;28;20062;-78
2021/12/08 02:10:06;;;;;;;6.70;4.40;;;;;;;;;;5029103;28;20028;-77
2021/12/08 02:12:35;;;;;;;6.25;4.00;;;;;;;;;;5018679;28;20499;-77
2021/12/08 02:15:00;;;;;;;7.90;3.92;;;;;;;;;;5029145;28;20503;-76
2021/12/08 02:17:26;;;;;;;7.60;4.50;;;;;;;;;;5026945;28;20033;-77
2021/12/08 02:19:51;;;;;;;8.07;4.33;;;;;;;;;;5022611;28;20014;-76
2021/12/08 02:22:16;;;;;;;6.20;4.07;;;;;;;;;;5028048;28;20107;-78
2021/12/08 02:24:42;;;;;;;6.83;4.00;;;;;;;;;;5024855;28;20029;-77
2021/12/08 02:27:07;;;;;;;7.13;3.63;;;;;;;;;;5027780;28;20026;-77
2021/12/08 02:29:55;;;;;;;5.90;3.73;;;;;;;;;;5028942;28;20068;-77
2021/12/08 02:46:43;;;;;;;7.57;4.43;;;;;;;;;;5029074;28;20032;-77
2021/12/08 02:48:39;;;;;;;6.87;3.80;;;;;;;;;;5024988;28;20071;-76
2021/12/08 02:51:05;;;;;;;5.67;3.93;;;;;;;;;;5027097;28;20041;-79
2021/12/08 02:53:31;;;;;;;5.97;4.20;;;;;;;;;;5028317;28;20646;-77
2021/12/08 02:55:56;;;;;;;6.93;4.20;;;;;;;;;;5025024;28;20056;-78
2021/12/08 02:58:21;;;;;;;7.00;4.00;;;;;;;;;;5029357;28;20500;-78
2021/12/08 03:00:50;;;;;;;6.87;3.83;;;;;;;;;;5027590;28;20078;-78
2021/12/08 03:03:16;;;;;;;8.27;3.88;;;;;;;;;;5027245;28;20400;-76
2021/12/08 03:05:41;;;;;;;8.10;3.90;;;;;;;;;;5024555;28;20029;-77
2021/12/08 03:08:07;;;;;;;7.60;3.90;;;;;;;;;;5024786;28;20060;-76
2021/12/08 03:10:35;;;;;;;7.20;3.70;;;;;;;;;;5028920;28;20104;-76
2021/12/08 03:13:00;;;;;;;8.07;4.00;;;;;;;;;;5034188;28;20026;-78
2021/12/08 03:15:25;;;;;;;8.73;4.30;;;;;;;;;;5025591;28;20083;-76
2021/12/08 03:17:51;;;;;;;6.77;4.00;;;;;;;;;;5018415;28;20036;-77
2021/12/08 03:20:21;;;;;;;6.20;3.70;;;;;;;;;;5029297;28;20042;-76
2021/12/08 03:22:48;;;;;;;8.43;4.30;;;;;;;;;;5027445;28;20548;-77
2021/12/08 03:25:17;;;;;;;6.87;3.80;;;;;;;;;;5027475;28;20068;-78
2021/12/08 03:28:03;;;;;;;6.40;3.78;;;;;;;;;;5025705;28;20021;-78
2021/12/08 03:30:34;;;;;;;10.90;4.10;;;;;;;;;;5021295;28;20048;-77
2021/12/08 03:32:59;;;;;;;7.67;4.03;;;;;;;;;;5022108;28;20040;-77
2021/12/08 03:35:24;;;;;;;5.63;3.50;;;;;;;;;;5028523;28;20021;-77
2021/12/08 03:37:50;;;;;;;5.53;3.80;;;;;;;;;;5020662;28;20034;-77
2021/12/08 03:40:16;;;;;;;6.43;4.00;;;;;;;;;;5017341;28;20025;-76
2021/12/08 03:42:42;;;;;;;6.43;3.87;;;;;;;;;;5025004;28;20163;-77
2021/12/08 03:45:10;;;;;;;7.77;4.93;;;;;;;;;;5023693;28;20463;-77
2021/12/08 03:47:38;;;;;;;7.57;3.95;;;;;;;;;;5023477;28;20072;-75
2021/12/08 03:50:05;;;;;;;10.17;4.20;;;;;;;;;;5028696;28;20030;-78
2021/12/08 03:52:30;;;;;;;7.73;4.10;;;;;;;;;;5029533;28;20026;-78
2021/12/08 03:54:55;;;;;;;6.87;4.13;;;;;;;;;;5022044;28;20354;-77
2021/12/08 03:57:20;;;;;;;7.07;4.27;;;;;;;;;;5023291;28;20362;-77
2021/12/08 03:59:46;;;;;;;9.30;4.90;;;;;;;;;;5019732;28;20022;-77
2021/12/08 04:02:11;;;;;;;7.07;4.23;;;;;;;;;;5029817;28;20029;-77
2021/12/08 04:04:47;;;;;;;6.93;3.90;;;;;;;;;;5023951;28;20079;-77
2021/12/08 04:07:14;;;;;;;7.27;4.13;;;;;;;;;;5021470;28;20458;-77
2021/12/08 04:09:41;;;;;;;6.13;3.63;;;;;;;;;;5019892;28;20373;-77
2021/12/08 04:12:08;;;;;;;8.97;4.47;;;;;;;;;;5019390;28;20022;-77
2021/12/08 04:14:46;;;;;;;7.13;4.33;;;;;;;;;;5024602;28;20061;-76
2021/12/08 04:17:13;;;;;;;8.13;4.20;;;;;;;;;;5021899;28;20022;-78
2021/12/08 04:19:39;;;;;;;7.60;4.87;;;;;;;;;;5026260;28;20021;-77
2021/12/08 04:22:07;;;;;;;11.03;4.27;;;;;;;;;;5020742;28;20025;-77
2021/12/08 04:24:32;;;;;;;8.97;4.70;;;;;;;;;;5026697;28;20044;-77
2021/12/08 04:27:06;;;;;;;7.60;4.50;;;;;;;;;;5020326;28;20030;-76
2021/12/08 04:29:32;;;;;;;9.37;4.90;;;;;;;;;;5026809;28;20099;-77
2021/12/08 04:31:58;;;;;;;7.07;4.47;;;;;;;;;;5026380;28;20418;-80
2021/12/08 04:34:28;;;;;;;6.60;4.20;;;;;;;;;;5027248;28;20029;-77
2021/12/08 04:36:55;;;;;;;8.23;4.95;;;;;;;;;;5029059;28;20423;-78
2021/12/08 04:39:30;;;;;;;8.93;4.90;;;;;;;;;;5030079;28;20091;-77
2021/12/08 04:42:03;;;;;;;8.20;4.55;;;;;;;;;;5031028;28;20423;-78
2021/12/08 04:44:39;;;;;;;7.90;4.90;;;;;;;;;;5031068;28;20029;-77
2021/12/08 05:00:57;;;;;;;8.13;4.63;;;;;;;;;;5036499;28;20059;-76
2021/12/08 05:08:44;;;;;;;8.15;4.80;;;;;;;;;;5008798;28;20112;-78
2021/12/08 05:11:25;;;;;;;9.47;5.00;;;;;;;;;;5000171;28;20153;-77
2021/12/08 05:13:52;;;;;;;6.97;4.63;;;;;;;;;;5002624;28;20493;-77
2021/12/08 05:16:18;;;;;;;8.20;4.40;;;;;;;;;;5003999;28;20026;-78
2021/12/08 05:18:44;;;;;;;8.35;4.43;;;;;;;;;;5007366;28;20049;-78
2021/12/08 05:21:48;;;;;;;6.53;4.55;;;;;;;;;;5009176;28;20080;-77
2021/12/08 05:24:15;;;;;;;7.80;4.00;;;;;;;;;;4968621;28;20047;-77
2021/12/08 05:26:46;;;;;;;8.82;4.10;;;;;;;;;;4957308;28;20081;-77
2021/12/08 05:29:23;;;;;;;7.47;4.22;;;;;;;;;;4969368;28;20046;-77
2021/12/08 05:31:49;;;;;;;6.13;3.87;;;;;;;;;;4968964;28;20030;-76
2021/12/08 05:34:14;;;;;;;5.88;4.00;;;;;;;;;;4968979;28;20429;-76
2021/12/08 05:36:40;;;;;;;6.80;4.00;;;;;;;;;;4968821;28;20097;-77
2021/12/08 05:39:07;;;;;;;6.75;4.00;;;;;;;;;;4969004;28;20031;-76
2021/12/08 05:41:33;;;;;;;8.07;4.10;;;;;;;;;;4968306;28;20045;-75
2021/12/08 05:43:59;;;;;;;6.27;4.20;;;;;;;;;;4975298;28;20065;-76
2021/12/08 05:46:27;;;;;;;7.13;3.87;;;;;;;;;;4985092;28;20083;-76
2021/12/08 05:48:52;;;;;;;7.75;4.45;;;;;;;;;;4981796;28;20030;-77
2021/12/08 05:51:22;;;;;;;5.57;3.77;;;;;;;;;;4985720;28;20034;-75
2021/12/08 05:53:48;;;;;;;6.47;3.87;;;;;;;;;;4984913;28;20026;-77
2021/12/08 05:56:14;;;;;;;7.18;3.97;;;;;;;;;;5017945;28;20026;-77
2021/12/08 05:58:40;;;;;;;9.90;4.50;;;;;;;;;;5027156;28;20516;-63
2021/12/08 06:01:12;;;;;;;11.20;5.00;;;;;;;;;;5028759;28;20114;-64
2021/12/08 06:03:38;;;;;;;10.18;4.53;;;;;;;;;;5026262;28;20119;-64
2021/12/08 06:06:05;;;;;;;7.93;4.68;;;;;;;;;;5028934;28;20179;-63
2021/12/08 06:08:30;;;;;;;7.35;4.22;;;;;;;;;;5027285;28;20130;-63
2021/12/08 06:11:00;;;;;;;9.15;4.22;;;;;;;;;;5020804;28;20509;-62
2021/12/08 06:13:25;;;;;;;7.63;4.35;;;;;;;;;;5029427;28;20481;-63
2021/12/08 06:15:50;;;;;;;8.43;4.43;;;;;;;;;;5028483;28;20057;-65
2021/12/08 06:18:21;;;;;;;7.55;4.93;;;;;;;;;;5017525;28;20052;-66
2021/12/08 06:20:47;;;;;;;8.50;4.70;;;;;;;;;;5025030;28;20377;-63
2021/12/08 06:23:12;;;;;;;7.50;4.47;;;;;;;;;;5021796;28;20033;-64
2021/12/08 06:25:38;;;;;;;8.43;4.70;;;;;;;;;;5022305;28;20036;-63
2021/12/08 06:28:03;;;;;;;8.52;4.25;;;;;;;;;;5026875;28;20397;-64
2021/12/08 06:30:30;;;;;;;6.95;4.30;;;;;;;;;;5027765;28;20026;-63
2021/12/08 06:32:55;;;;;;;8.07;4.47;;;;;;;;;;5020854;28;20032;-64
2021/12/08 06:35:24;;;;;;;5.78;3.53;;;;;;;;;;5028122;28;20045;-63
2021/12/08 06:37:49;;;;;;;8.20;3.72;;;;;;;;;;5026624;28;20033;-63
2021/12/08 06:40:23;;;;;;;7.63;3.63;;;;;;;;;;5022117;28;20056;-63
2021/12/08 06:42:50;;;;;;;7.47;3.63;;;;;;;;;;5028384;28;20532;-63
2021/12/08 06:45:18;;;;;;;6.75;3.60;;;;;;;;;;5025154;28;20025;-62
2021/12/08 06:47:44;;;;;;;8.02;3.70;;;;;;;;;;5025388;28;20104;-62
2021/12/08 06:50:15;;;;;;;5.03;3.15;;;;;;;;;;5028018;28;20037;-62
2021/12/08 06:52:41;;;;;;;7.82;3.90;;;;;;;;;;5026188;28;20024;-62
2021/12/08 06:55:09;;;;;;;7.97;4.15;;;;;;;;;;5028231;28;20025;-63
2021/12/08 06:57:38;;;;;;;8.57;4.47;;;;;;;;;;5024579;28;20109;-63
2021/12/08 07:00:19;;;;;;;8.30;3.67;;;;;;;;;;5026261;28;20431;-63
2021/12/08 07:05:42;;;;;;;7.72;3.65;;;;;;;;;;5025484;28;20175;-63
2021/12/08 07:08:08;;;;;;;7.25;4.10;;;;;;;;;;5016686;28;20053;-63
2021/12/08 07:10:43;;;;;;;7.13;3.85;;;;;;;;;;5015759;28;20045;-63
2021/12/08 07:13:11;;;;;;;7.10;4.10;;;;;;;;;;5024054;28;20040;-64
2021/12/08 07:15:45;;;;;;;8.95;4.32;;;;;;;;;;5027757;28;20021;-63
2021/12/08 07:18:25;;;;;;;8.85;4.07;;;;;;;;;;5023986;28;20110;-63
2021/12/08 07:20:53;;;;;;;6.72;4.20;;;;;;;;;;5025118;28;20033;-64
2021/12/08 07:23:21;;;;;;;7.20;3.72;;;;;;;;;;5027414;28;20033;-64
2021/12/08 07:25:47;;;;;;;7.38;3.53;;;;;;;;;;5027079;28;20021;-62
2021/12/08 07:28:13;;;;;;;6.40;3.40;;;;;;;;;;5027658;28;20111;-64
2021/12/08 07:30:45;;;;;;;10.27;3.72;;;;;;;;;;5023625;28;20021;-64
2021/12/08 07:33:10;;;;;;;7.68;3.58;;;;;;;;;;5021304;28;20036;-63
2021/12/08 07:35:38;;;;;;;8.68;3.58;;;;;;;;;;5027420;28;20022;-64
2021/12/08 07:38:05;;;;;;;8.23;3.78;;;;;;;;;;5022101;28;20036;-63
2021/12/08 07:40:34;;;;;;;10.18;3.95;;;;;;;;;;5024823;28;20100;-63
2021/12/08 07:43:01;;;;;;;22.67;4.68;;;;;;;;;;5026853;28;20060;-63
2021/12/08 07:45:32;;;;;;;10.82;5.20;;;;;;;;;;5021211;28;20140;-63
2021/12/08 07:47:58;;;;;;;7.28;3.90;;;;;;;;;;5027115;28;20040;-63
2021/12/08 07:50:29;;;;;;;7.15;3.90;;;;;;;;;;5030356;28;20029;-65
2021/12/08 07:52:55;;;;;;;6.60;3.70;;;;;;;;;;5026631;28;20108;-63
2021/12/08 07:55:25;;;;;;;7.95;3.85;;;;;;;;;;5026551;28;21015;-64
2021/12/08 07:57:51;;;;;;;11.00;4.18;;;;;;;;;;5028085;28;20032;-64
2021/12/08 08:00:20;;;;;;;10.68;4.05;;;;;;;;;;5026948;28;20033;-64
2021/12/08 08:02:45;;;;;;;7.80;3.35;;;;;;;;;;5024766;28;20120;-64
2021/12/08 08:05:11;;;;;;;5.90;3.50;;;;;;;;;;5027662;28;20116;-64
2021/12/08 08:07:37;;;;;;;7.72;3.85;;;;;;;;;;5022979;28;20048;-64
2021/12/08 08:10:03;;;;;;;8.98;3.97;;;;;;;;;;5030709;28;20021;-63
2021/12/08 08:12:31;;;;;;;9.32;3.78;;;;;;;;;;5025299;28;20021;-63
2021/12/08 08:15:00;;;;;;;6.93;3.28;;;;;;;;;;5028707;28;20029;-63
2021/12/08 08:17:31;;;;;;;7.78;3.35;;;;;;;;;;5032630;28;20495;-63
2021/12/08 08:19:57;;;;;;;10.95;4.13;;;;;;;;;;5032103;28;20063;-64
2021/12/08 08:22:25;;;;;;;8.93;3.95;;;;;;;;;;5038492;28;20052;-63
2021/12/08 08:24:52;;;;;;;7.22;3.55;;;;;;;;;;5028488;28;20029;-64
2021/12/08 08:27:17;;;;;;;7.97;3.13;;;;;;;;;;5026081;28;20101;-65
2021/12/08 08:29:42;;;;;;;7.32;3.67;;;;;;;;;;5028472;28;20531;-63
2021/12/08 08:32:11;;;;;;;9.70;3.33;;;;;;;;;;5031502;28;20021;-65
2021/12/08 08:34:40;;;;;;;8.20;3.50;;;;;;;;;;5024970;28;20473;-63
2021/12/08 08:37:07;;;;;;;5.63;3.38;;;;;;;;;;5029292;28;20036;-64
2021/12/08 08:39:34;;;;;;;9.07;3.30;;;;;;;;;;5024672;28;20404;-63
2021/12/08 08:42:05;;;;;;;4.53;2.75;;;;;;;;;;5031209;28;20129;-63
2021/12/08 08:44:36;;;;;;;7.43;3.22;;;;;;;;;;5028641;28;20155;-63
2021/12/08 08:47:05;;;;;;;7.13;3.40;;;;;;;;;;5030961;28;20028;-65
2021/12/08 08:49:31;;;;;;;6.78;3.10;;;;;;;;;;5028610;28;20029;-63
2021/12/08 08:52:05;;;;;;;6.50;2.97;;;;;;;;;;5033137;28;20036;-62
2021/12/08 08:54:32;;;;;;;7.05;3.05;;;;;;;;;;5025965;28;20082;-63
2021/12/08 08:57:03;;;;;;;6.20;2.80;;;;;;;;;;5023464;28;20032;-64
2021/12/08 08:59:31;;;;;;;6.97;3.40;;;;;;;;;;5023879;28;20022;-64
2021/12/08 09:01:57;;;;;;;6.85;3.10;;;;;;;;;;5023864;28;20022;-63
2021/12/08 09:04:25;;;;;;;9.30;3.22;;;;;;;;;;5023499;28;20051;-64
2021/12/08 09:06:52;;;;;;;6.55;3.30;;;;;;;;;;5030280;28;20053;-64
2021/12/08 09:09:20;;;;;;;8.68;3.58;;;;;;;;;;5023003;28;20099;-64
2021/12/08 09:11:53;;;;;;;7.63;3.28;;;;;;;;;;5029554;28;20381;-63
2021/12/08 09:14:24;;;;;;;7.25;3.00;;;;;;;;;;5031168;28;20397;-62
2021/12/08 09:16:54;;;;;;;8.15;3.25;;;;;;;;;;5022738;28;20194;-63
2021/12/08 09:19:28;;;;;;;8.57;4.00;;;;;;;;;;5027918;28;20030;-63
2021/12/08 09:22:00;;;;;;;11.95;4.68;;;;;;;;;;5023609;28;20065;-63
2021/12/08 09:24:33;;;;;;;10.80;4.38;;;;;;;;;;5030574;28;20115;-64
2021/12/08 09:26:59;;;;;;;12.07;4.50;;;;;;;;;;5018516;28;20473;-62
2021/12/08 09:29:26;;;;;;;11.65;4.40;;;;;;;;;;5021775;28;20052;-64
2021/12/08 09:31:56;;;;;;;10.82;4.18;;;;;;;;;;5030579;28;20033;-63
2021/12/08 09:34:27;;;;;;;9.48;4.30;;;;;;;;;;5029193;28;20489;-64
2021/12/08 09:36:54;;;;;;;6.95;3.67;;;;;;;;;;5030212;28;20021;-63
2021/12/08 09:39:24;;;;;;;10.80;4.53;;;;;;;;;;5023511;28;20432;-62
2021/12/08 09:41:49;;;;;;;;;;;;;;;;;;5027193;28;20029;-62
2021/12/08 09:44:20;;;;;;;11.65;3.75;;;;;;;;;;5030528;28;19917;-64
2021/12/08 09:46:46;;;;;;;8.95;3.60;;;;;;;;;;5030578;28;20582;-62
2021/12/08 09:49:12;;;;;;;9.15;3.25;;;;;;;;;;5029967;28;20141;-63
2021/12/08 09:51:38;;;;;;;7.40;3.45;;;;;;;;;;5029085;28;20523;-63
2021/12/08 09:54:04;;;;;;;9.48;3.13;;;;;;;;;;5030253;28;20021;-64
2021/12/08 09:56:30;;;;;;;11.18;3.42;;;;;;;;;;5029952;28;20030;-63
2021/12/08 09:58:56;;;;;;;8.07;3.35;;;;;;;;;;5029737;28;20018;-63
2021/12/08 10:01:22;;;;;;;11.40;3.65;;;;;;;;;;5029813;28;20037;-64
2021/12/08 10:03:49;;;;;;;7.70;3.10;;;;;;;;;;5030053;28;20041;-64
2021/12/08 10:06:15;;;;;;;7.55;3.72;;;;;;;;;;5030352;28;20033;-64
2021/12/08 10:08:42;;;;;;;8.15;3.97;;;;;;;;;;5029911;28;20049;-63
2021/12/08 10:11:07;;;;;;;8.15;4.18;;;;;;;;;;5025290;28;20052;-64
2021/12/08 10:13:32;;;;;;;8.50;4.05;;;;;;;;;;5029642;28;20535;-63
2021/12/08 10:15:57;;;;;;;10.73;4.15;;;;;;;;;;5029866;28;20069;-64
2021/12/08 10:18:23;;;;;;;12.80;4.60;;;;;;;;;;5030105;28;20111;-63
2021/12/08 10:20:49;;;;;;;7.63;4.28;;;;;;;;;;5035210;28;20040;-65
2021/12/08 10:23:17;;;;;;;12.38;4.55;;;;;;;;;;5029573;28;20033;-64
2021/12/08 10:25:44;;;;;;;10.55;4.43;;;;;;;;;;5029355;28;20028;-63
2021/12/08 10:28:17;;;;;;;11.10;4.78;;;;;;;;;;5029653;28;20095;-64
2021/12/08 10:30:57;;;;;;;9.40;4.47;;;;;;;;;;5029612;28;20645;-65
2021/12/08 10:33:38;;;;;;;10.95;4.65;;;;;;;;;;5022452;28;20053;-63
2021/12/08 10:36:18;;;;;;;9.40;4.60;;;;;;;;;;5029554;28;20108;-63
2021/12/08 10:38:43;;;;;;;10.93;4.55;;;;;;;;;;5029577;28;20473;-63
2021/12/08 10:41:08;;;;;;;8.80;4.45;;;;;;;;;;5029149;28;20060;-63
2021/12/08 10:43:34;;;;;;;9.10;5.22;;;;;;;;;;5028835;28;20040;-63
2021/12/08 10:46:05;;;;;;;8.88;4.68;;;;;;;;;;5027899;28;20065;-64
2021/12/08 10:48:37;;;;;;;10.25;4.78;;;;;;;;;;5029227;28;20035;-63
2021/12/08 10:56:37;;;;;;;10.57;4.53;;;;;;;;;;5024555;28;20024;-63
2021/12/08 10:59:02;;;;;;;12.05;4.18;;;;;;;;;;5028734;28;20021;-63
2021/12/08 11:01:28;;;;;;;9.35;4.38;;;;;;;;;;5029153;28;20032;-64
2021/12/08 11:04:00;;;;;;;14.13;5.30;;;;;;;;;;5026338;28;20123;-63
2021/12/08 11:06:29;;;;;;;13.45;5.15;;;;;;;;;;5028232;28;20131;-64
2021/12/08 11:08:56;;;;;;;10.88;4.80;;;;;;;;;;5028511;28;20025;-64
2021/12/08 11:11:24;;;;;;;11.77;5.05;;;;;;;;;;5028817;28;20052;-64
2021/12/08 11:13:54;;;;;;;12.70;5.15;;;;;;;;;;5028743;28;20473;-64
2021/12/08 11:16:23;;;;;;;11.23;4.65;;;;;;;;;;5027824;28;20033;-63
2021/12/08 11:18:58;;;;;;;13.63;5.65;;;;;;;;;;5028774;28;20603;-65
2021/12/08 11:21:32;;;;;;;13.68;5.43;;;;;;;;;;5035312;28;20022;-64
2021/12/08 11:23:59;;;;;;;12.43;5.78;;;;;;;;;;5028484;28;20493;-64
2021/12/08 11:26:26;;;;;;;16.60;5.68;;;;;;;;;;5022360;28;20100;-63
2021/12/08 11:29:00;;;;;;;11.63;5.10;;;;;;;;;;5028173;28;20041;-64
2021/12/08 11:31:59;;;;;;;9.05;4.63;;;;;;;;;;5028482;28;20528;-64
2021/12/08 11:34:25;;;;;;;9.40;5.22;;;;;;;;;;4967955;28;20209;-63
2021/12/08 11:36:55;;;;;;;9.05;4.80;;;;;;;;;;4976690;28;20057;-64
2021/12/08 11:39:27;;;;;;;12.43;5.68;;;;;;;;;;4982411;28;20086;-64
2021/12/08 11:41:54;;;;;;;12.00;6.57;;;;;;;;;;4970680;28;20030;-63
2021/12/08 11:44:20;;;;;;;10.18;5.63;;;;;;;;;;4976642;28;20146;-63
2021/12/08 11:46:53;;;;;;;13.07;5.72;;;;;;;;;;4974597;28;20026;-64
2021/12/08 11:49:19;;;;;;;11.35;6.22;;;;;;;;;;4973524;28;20057;-64
2021/12/08 11:51:44;;;;;;;12.80;6.20;;;;;;;;;;4986602;28;20531;-64
2021/12/08 11:54:25;;;;;;;11.45;5.65;;;;;;;;;;4990341;28;20113;-62
2021/12/08 11:56:51;;;;;;;9.65;5.70;;;;;;;;;;4989916;28;20037;-62
2021/12/08 11:59:17;;;;;;;9.10;5.93;;;;;;;;;;4989907;28;20022;-63
2021/12/08 12:01:42;;;;;;;14.45;6.07;;;;;;;;;;4990206;28;20034;-62
2021/12/08 12:04:08;;;;;;;21.85;10.10;;;;;;;;;;4989676;28;20049;-62
2021/12/08 12:06:34;;;;;;;20.77;9.25;;;;;;;;;;4990189;28;20545;-63
2021/12/08 12:09:00;;;;;;;14.95;7.78;;;;;;;;;;4988270;28;20119;-62
2021/12/08 12:11:27;;;;;;;13.63;6.45;;;;;;;;;;5028919;28;20104;-63
2021/12/08 12:13:53;;;;;;;13.07;6.57;;;;;;;;;;5031735;28;20117;-63
2021/12/08 12:16:18;;;;;;;12.50;6.22;;;;;;;;;;5031755;28;20489;-63
2021/12/08 12:18:43;;;;;;;14.77;6.97;;;;;;;;;;5031605;28;20057;-63
2021/12/08 12:21:35;;;;;;;12.45;7.03;;;;;;;;;;5037423;28;20044;-64
2021/12/08 12:24:19;;;;;;;13.13;6.50;;;;;;;;;;5023561;28;20407;-63
2021/12/08 12:27:03;;;;;;;11.40;6.35;;;;;;;;;;5031626;28;20469;-62
2021/12/08 12:29:43;;;;;;;13.15;8.40;;;;;;;;;;5028129;28;20062;-64
2021/12/08 12:32:17;;;;;;;15.13;7.45;;;;;;;;;;5029888;28;20032;-63
2021/12/08 12:34:42;;;;;;;16.42;7.68;;;;;;;;;;5032164;28;20350;-64
2021/12/08 12:37:17;;;;;;;14.05;8.40;;;;;;;;;;5031592;28;20112;-62
2021/12/08 12:40:08;;;;;;;15.63;7.63;;;;;;;;;;5029416;28;20041;-65
2021/12/08 12:42:46;;;;;;;16.63;8.27;;;;;;;;;;5027349;28;20033;-63
2021/12/08 12:45:14;;;;;;;10.95;7.07;;;;;;;;;;5031803;28;20029;-62
2021/12/08 12:47:40;;;;;;;16.17;7.10;;;;;;;;;;5031514;28;20028;-63
2021/12/08 12:50:05;;;;;;;10.95;5.95;;;;;;;;;;5030813;28;20029;-62
2021/12/08 12:52:38;;;;;;;15.90;5.80;;;;;;;;;;5031204;28;20009;-63
2021/12/08 12:55:08;;;;;;;12.95;5.43;;;;;;;;;;5031120;28;20101;-62
2021/12/08 12:57:54;;;;;;;14.65;6.72;;;;;;;;;;5029866;28;20300;-63
2021/12/08 13:00:27;;;;;;;12.88;7.47;;;;;;;;;;5025148;28;20145;-64
2021/12/08 13:02:52;;;;;;;13.57;7.28;;;;;;;;;;5022793;28;20021;-63
2021/12/08 13:05:18;;;;;;;16.00;6.32;;;;;;;;;;5030766;28;20033;-64
2021/12/08 13:07:55;;;;;;;15.38;6.53;;;;;;;;;;5031127;28;20053;-63
2021/12/08 13:10:29;;;;;;;12.02;5.68;;;;;;;;;;5030988;28;20097;-62
2021/12/08 13:13:07;;;;;;;13.75;5.97;;;;;;;;;;5026315;28;20037;-63
2021/12/08 13:15:33;;;;;;;11.30;6.50;;;;;;;;;;5031032;28;20440;-63
2021/12/08 13:18:03;;;;;;;14.50;6.43;;;;;;;;;;5030892;28;20021;-63
2021/12/08 13:20:29;;;;;;;11.98;5.75;;;;;;;;;;5030780;28;20029;-63
2021/12/08 13:22:58;;;;;;;11.25;5.45;;;;;;;;;;5029684;28;20029;-63
2021/12/08 13:25:23;;;;;;;13.07;4.88;;;;;;;;;;5028645;28;20099;-62
2021/12/08 13:27:51;;;;;;;7.93;4.22;;;;;;;;;;5030439;28;20108;-63
2021/12/08 13:30:18;;;;;;;9.15;4.40;;;;;;;;;;5030793;28;20022;-62
2021/12/08 13:32:47;;;;;;;10.50;5.30;;;;;;;;;;5030480;28;20021;-63
2021/12/08 13:35:30;;;;;;;8.30;4.25;;;;;;;;;;5028007;28;20022;-63
2021/12/08 13:37:56;;;;;;;7.00;4.07;;;;;;;;;;5030601;28;20108;-62
2021/12/08 13:40:38;;;;;;;7.57;4.15;;;;;;;;;;5029582;28;20029;-62
2021/12/08 13:43:05;;;;;;;7.82;4.40;;;;;;;;;;5024110;28;20029;-64
2021/12/08 13:45:39;;;;;;;8.77;4.40;;;;;;;;;;5025396;28;20025;-62
2021/12/08 13:48:05;;;;;;;11.63;5.20;;;;;;;;;;5030067;28;20037;-62
2021/12/08 13:50:33;;;;;;;8.27;4.88;;;;;;;;;;5032332;28;20025;-63
2021/12/08 13:53:08;;;;;;;8.50;4.60;;;;;;;;;;5027982;28;20022;-63
2021/12/08 13:55:38;;;;;;;7.85;3.60;;;;;;;;;;5020967;28;20402;-63
2021/12/08 13:58:07;;;;;;;7.82;4.07;;;;;;;;;;5016497;28;20500;-63
2021/12/08 14:00:46;;;;;;;8.05;3.90;;;;;;;;;;5041008;28;20053;-62
2021/12/08 14:03:15;;;;;;;7.57;3.72;;;;;;;;;;5029591;28;20017;-63
2021/12/08 14:05:42;;;;;;;17.08;7.85;;;;;;;;;;5033353;28;20029;-62
2021/12/08 14:08:16;;;;;;;9.77;4.88;;;;;;;;;;5030530;28;20164;-63
2021/12/08 14:10:42;;;;;;;9.45;4.88;;;;;;;;;;5035539;28;20051;-63
2021/12/08 14:13:09;;;;;;;7.28;4.43;;;;;;;;;;5034394;28;20021;-62
2021/12/08 14:15:36;;;;;;;8.38;5.00;;;;;;;;;;5027763;28;20083;-62
2021/12/08 14:18:19;;;;;;;7.75;4.38;;;;;;;;;;5027374;28;20520;-63
2021/12/08 14:20:47;;;;;;;9.65;4.70;;;;;;;;;;5029790;28;20018;-62
2021/12/08 14:23:13;;;;;;;9.40;4.68;;;;;;;;;;5023015;28;20034;-62
2021/12/08 14:25:38;;;;;;;8.32;4.32;;;;;;;;;;5012682;28;20045;-62
2021/12/08 14:28:22;;;;;;;8.15;5.00;;;;;;;;;;5021180;28;20025;-63
2021/12/08 14:30:47;;;;;;;10.50;5.05;;;;;;;;;;5018767;28;20871;-63
2021/12/08 14:33:12;;;;;;;10.75;4.80;;;;;;;;;;5020130;28;20018;-63
2021/12/08 14:35:37;;;;;;;8.95;4.45;;;;;;;;;;5024542;28;20026;-62
2021/12/08 14:38:03;;;;;;;7.45;4.30;;;;;;;;;;5023981;28;20465;-63
2021/12/08 14:40:28;;;;;;;8.70;4.13;;;;;;;;;;5022889;28;20025;-63
2021/12/08 14:42:54;;;;;;;10.43;4.82;;;;;;;;;;5023583;28;20465;-65
2021/12/08 14:45:25;;;;;;;9.27;4.28;;;;;;;;;;5024505;28;20037;-65
2021/12/08 14:47:52;;;;;;;8.40;4.05;;;;;;;;;;5021345;28;20083;-63
2021/12/08 14:50:22;;;;;;;9.68;4.85;;;;;;;;;;5024317;28;20021;-63
2021/12/08 14:52:47;;;;;;;9.88;4.85;;;;;;;;;;5019658;28;20543;-62
2021/12/08 14:55:21;;;;;;;11.88;5.32;;;;;;;;;;5021683;28;20014;-63
2021/12/08 14:57:48;;;;;;;7.82;4.28;;;;;;;;;;5018388;28;20370;-63
2021/12/08 15:00:13;;;;;;;9.10;4.60;;;;;;;;;;5015976;28;20025;-63
2021/12/08 15:02:46;;;;;;;7.93;3.90;;;;;;;;;;5018118;28;20052;-63
2021/12/08 15:05:20;;;;;;;8.23;4.07;;;;;;;;;;5026472;28;20097;-63
2021/12/08 15:07:46;;;;;;;7.13;3.83;;;;;;;;;;5018956;28;20514;-63
2021/12/08 15:10:13;;;;;;;8.45;4.22;;;;;;;;;;5017411;28;20583;-63
2021/12/08 15:12:40;;;;;;;9.15;3.75;;;;;;;;;;5020897;28;20029;-63
2021/12/08 15:15:13;;;;;;;7.35;4.13;;;;;;;;;;5028308;28;20613;-63
2021/12/08 15:17:38;;;;;;;13.95;5.90;;;;;;;;;;5028903;28;20053;-63
2021/12/08 15:20:04;;;;;;;12.98;6.90;;;;;;;;;;5026702;28;20509;-62
2021/12/08 15:22:44;;;;;;;12.10;6.65;;;;;;;;;;5025325;28;20068;-63
2021/12/08 15:25:11;;;;;;;10.23;5.40;;;;;;;;;;5023063;28;20132;-62
2021/12/08 15:27:38;;;;;;;17.30;7.30;;;;;;;;;;5027918;28;20025;-62
2021/12/08 15:30:04;;;;;;;10.15;5.13;;;;;;;;;;5020725;28;20038;-63
2021/12/08 15:32:29;;;;;;;8.88;4.60;;;;;;;;;;5017273;28;20083;-62